Time;durP1;ratioP1;P1;durP2;ratioP2;P2;SDS_P1;SDS_P2;PMS_P1;PMS_P2;Temp;Humidity;BMP_temperature;BMP_pressure;BME280_temperature;BME280_humidity;BME280_pressure;Samples;Min_cycle;Max_cycle;Signal;HPM_P1;HPM_P2
2022/03/17 00:01:48;;;;;;;49.83;25.17;;;;;6.40;97039.00;;;;8369753;28;20584;-73
2022/03/17 00:05:51;;;;;;;49.90;25.40;;;;;6.40;97037.00;;;;8372740;28;20234;-73
2022/03/17 00:09:54;;;;;;;47.73;24.67;;;;;6.30;97032.00;;;;8360835;28;20237;-73
2022/03/17 00:13:58;;;;;;;46.90;24.43;;;;;6.30;97028.00;;;;8364949;28;20650;-74
2022/03/17 00:18:02;;;;;;;46.73;24.87;;;;;6.20;97019.00;;;;8368112;28;20227;-73
2022/03/17 00:22:08;;;;;;;50.40;25.10;;;;;6.20;97018.00;;;;8366481;28;20775;-73
2022/03/17 00:26:12;;;;;;;58.70;27.47;;;;;6.20;97024.00;;;;8376844;28;20241;-73
2022/03/17 00:30:16;;;;;;;50.07;24.53;;;;;6.10;97020.00;;;;8366140;28;20296;-74
2022/03/17 00:34:19;;;;;;;47.67;24.33;;;;;6.10;97030.00;;;;8365315;28;20231;-73
2022/03/17 00:38:22;;;;;;;45.30;23.50;;;;;6.10;97028.00;;;;8367144;28;20293;-72
2022/03/17 00:42:26;;;;;;;51.03;24.17;;;;;5.90;97032.00;;;;8363718;28;20729;-73
2022/03/17 00:46:30;;;;;;;45.17;22.83;;;;;5.70;97036.00;;;;8367251;28;21011;-73
2022/03/17 00:50:33;;;;;;;47.43;23.63;;;;;5.50;97040.00;;;;8370944;28;20223;-73
2022/03/17 00:54:36;;;;;;;51.50;23.80;;;;;5.20;97039.00;;;;8368437;28;20285;-74
2022/03/17 00:58:39;;;;;;;45.83;23.27;;;;;4.90;97050.00;;;;8366537;28;20231;-74
2022/03/17 01:02:44;;;;;;;48.07;24.40;;;;;4.70;97047.00;;;;8366886;28;20229;-73
2022/03/17 01:06:47;;;;;;;52.67;24.37;;;;;4.50;97055.00;;;;8364567;28;20313;-73
2022/03/17 01:10:50;;;;;;;54.90;26.40;;;;;4.40;97042.00;;;;8370262;28;20236;-74
2022/03/17 01:15:22;;;;;;;57.83;25.50;;;;;4.10;97021.00;;;;8372753;28;20677;-74
2022/03/17 01:19:27;;;;;;;51.77;24.70;;;;;4.00;97032.00;;;;8374679;28;20232;-73
2022/03/17 01:23:30;;;;;;;57.13;27.00;;;;;3.90;97024.00;;;;8376060;28;20267;-72
2022/03/17 01:27:34;;;;;;;64.13;27.30;;;;;3.80;97018.00;;;;8374909;28;20227;-75
2022/03/17 01:31:37;;;;;;;58.83;26.30;;;;;3.90;97012.00;;;;8368610;28;20755;-73
2022/03/17 01:35:42;;;;;;;56.27;26.23;;;;;3.80;97006.00;;;;8372811;28;20261;-74
2022/03/17 01:39:45;;;;;;;53.07;25.00;;;;;3.60;97001.00;;;;8376922;28;20699;-72
2022/03/17 01:43:48;;;;;;;55.07;25.80;;;;;3.70;97003.00;;;;8368882;28;20278;-73
2022/03/17 01:47:50;;;;;;;59.83;27.37;;;;;3.80;97009.00;;;;8380964;28;20280;-73
2022/03/17 01:51:55;;;;;;;59.43;26.80;;;;;3.80;97008.00;;;;8368988;28;20267;-72
2022/03/17 01:55:58;;;;;;;58.90;26.70;;;;;3.90;97019.00;;;;8375428;28;20289;-75
2022/03/17 02:00:02;;;;;;;56.43;25.77;;;;;3.90;97011.00;;;;8372437;28;20628;-74
2022/03/17 02:04:05;;;;;;;65.13;26.70;;;;;3.90;97015.00;;;;8371216;28;20995;-74
2022/03/17 02:08:10;;;;;;;58.30;26.50;;;;;3.90;97013.00;;;;8375139;28;20324;-73
2022/03/17 02:16:33;;;;;;;55.33;25.57;;;;;3.80;97015.00;;;;8371380;28;20308;-74
2022/03/17 02:20:37;;;;;;;57.83;26.20;;;;;3.80;97013.00;;;;8368039;28;20230;-74
2022/03/17 02:29:03;;;;;;;57.37;25.43;;;;;3.40;96999.00;;;;8381651;28;20221;-70
2022/03/17 02:33:09;;;;;;;62.77;27.07;;;;;3.30;96978.00;;;;8380873;28;20622;-73
2022/03/17 02:37:12;;;;;;;64.60;28.53;;;;;3.30;96980.00;;;;8382360;28;20225;-72
2022/03/17 02:41:22;;;;;;;65.77;27.03;;;;;3.40;96972.00;;;;8374470;28;20230;-71
2022/03/17 02:45:26;;;;;;;68.43;28.43;;;;;3.60;96970.00;;;;8372048;28;20763;-72
2022/03/17 02:49:29;;;;;;;60.73;27.93;;;;;3.80;96956.00;;;;8374128;28;20222;-72
2022/03/17 02:53:32;;;;;;;69.43;29.70;;;;;3.80;96971.00;;;;8369231;28;20233;-74
2022/03/17 02:57:37;;;;;;;71.40;29.97;;;;;3.80;96967.00;;;;8365690;28;20756;-73
2022/03/17 03:01:40;;;;;;;57.73;26.73;;;;;3.90;96968.00;;;;8397731;22;20234;-76
2022/03/17 03:05:44;;;;;;;65.37;28.07;;;;;3.80;96979.00;;;;8388556;28;20231;-78
2022/03/17 03:09:47;;;;;;;66.13;28.87;;;;;3.80;96963.00;;;;8390875;28;20304;-76
2022/03/17 03:13:51;;;;;;;60.20;28.40;;;;;3.80;96970.00;;;;8384582;28;20288;-73
2022/03/17 03:17:55;;;;;;;73.60;31.73;;;;;3.90;96966.00;;;;8385550;28;20631;-83
2022/03/17 03:21:58;;;;;;;89.27;35.20;;;;;4.00;96960.00;;;;8384373;28;20229;-74
2022/03/17 03:26:01;;;;;;;74.03;32.40;;;;;4.30;96959.00;;;;8392061;28;20299;-76
2022/03/17 03:30:06;;;;;;;62.60;29.90;;;;;4.50;96955.00;;;;8391586;28;20218;-75
2022/03/17 03:34:09;;;;;;;67.73;29.63;;;;;4.70;96956.00;;;;8403887;28;20683;-73
2022/03/17 03:38:12;;;;;;;66.07;30.20;;;;;4.80;96945.00;;;;8389042;28;20729;-75
2022/03/17 03:42:15;;;;;;;62.87;28.10;;;;;5.00;96942.00;;;;8393217;28;20687;-76
2022/03/17 03:46:20;;;;;;;66.07;30.80;;;;;5.10;96955.00;;;;8391048;28;20749;-74
2022/03/17 03:50:25;;;;;;;64.80;29.60;;;;;5.20;96957.00;;;;8405599;28;20581;-76
2022/03/17 03:54:28;;;;;;;59.97;28.37;;;;;5.30;96955.00;;;;8378256;28;20311;-77
2022/03/17 03:58:31;;;;;;;60.87;29.40;;;;;5.40;96971.00;;;;8387175;28;20300;-73
2022/03/17 04:02:35;;;;;;;58.33;28.23;;;;;5.50;96973.00;;;;8397306;28;20328;-82
2022/03/17 04:06:41;;;;;;;61.67;29.77;;;;;5.50;96976.00;;;;8388845;28;20289;-75
2022/03/17 04:10:44;;;;;;;63.27;30.20;;;;;5.50;96963.00;;;;8386320;28;20235;-75
2022/03/17 04:14:47;;;;;;;60.97;27.67;;;;;5.50;96958.00;;;;8399828;28;20225;-72
2022/03/17 04:18:51;;;;;;;65.80;30.10;;;;;5.50;96962.00;;;;8384373;28;20234;-72
2022/03/17 04:22:54;;;;;;;62.77;28.83;;;;;5.50;96973.00;;;;8394762;28;20230;-80
2022/03/17 04:26:58;;;;;;;64.27;29.23;;;;;5.50;96975.00;;;;8396892;28;20276;-77
2022/03/17 04:31:01;;;;;;;65.47;29.87;;;;;5.40;96993.00;;;;8380426;28;20634;-80
2022/03/17 04:35:06;;;;;;;60.03;28.67;;;;;5.40;97003.00;;;;8385016;28;20711;-72
2022/03/17 04:39:11;;;;;;;64.80;29.43;;;;;5.30;96989.00;;;;8391641;28;20233;-72
2022/03/17 04:43:17;;;;;;;63.50;30.30;;;;;5.40;96983.00;;;;8406332;28;20303;-74
2022/03/17 04:47:21;;;;;;;62.67;28.60;;;;;5.40;97004.00;;;;8394674;28;20289;-72
2022/03/17 04:51:25;;;;;;;53.70;27.27;;;;;5.40;97008.00;;;;8418617;28;20276;-74
2022/03/17 04:55:29;;;;;;;60.67;28.90;;;;;5.40;97014.00;;;;8405976;28;20288;-71
2022/03/17 04:59:32;;;;;;;57.80;28.60;;;;;5.40;97027.00;;;;8394972;28;20275;-74
2022/03/17 05:03:36;;;;;;;61.43;29.07;;;;;5.40;97037.00;;;;8409866;28;20288;-75
2022/03/17 05:07:41;;;;;;;60.93;27.67;;;;;5.30;97035.00;;;;8387849;28;20237;-81
2022/03/17 05:11:44;;;;;;;65.43;28.93;;;;;5.20;97035.00;;;;8390897;28;20229;-72
2022/03/17 05:15:47;;;;;;;62.40;29.30;;;;;5.20;97042.00;;;;8392788;28;20954;-74
2022/03/17 05:19:50;;;;;;;60.00;28.33;;;;;5.00;97035.00;;;;8397915;28;20277;-74
2022/03/17 05:23:55;;;;;;;68.03;30.30;;;;;5.00;97037.00;;;;8386576;28;20268;-73
2022/03/17 05:28:00;;;;;;;70.07;31.13;;;;;5.00;97038.00;;;;8391737;28;20281;-72
2022/03/17 05:32:03;;;;;;;65.87;31.80;;;;;5.00;97035.00;;;;8384466;28;20235;-73
2022/03/17 05:36:06;;;;;;;68.13;31.67;;;;;5.10;97040.00;;;;8397444;28;20255;-74
2022/03/17 05:40:15;;;;;;;69.10;31.63;;;;;5.10;97055.00;;;;8376127;28;20218;-72
2022/03/17 05:44:18;;;;;;;68.40;31.20;;;;;5.20;97043.00;;;;8394714;28;20667;-74
2022/03/17 05:48:21;;;;;;;66.53;32.30;;;;;5.20;97044.00;;;;8386225;28;20281;-74
2022/03/17 05:52:24;;;;;;;62.33;30.67;;;;;5.30;97059.00;;;;8378977;28;20983;-74
2022/03/17 05:56:28;;;;;;;75.57;33.70;;;;;5.40;97061.00;;;;8358256;28;20546;-73
2022/03/17 06:00:32;;;;;;;67.57;32.17;;;;;5.40;97055.00;;;;8379045;28;20286;-73
2022/03/17 06:04:35;;;;;;;66.23;31.20;;;;;5.50;97061.00;;;;8368328;28;20330;-74
2022/03/17 06:08:39;;;;;;;69.50;31.57;;;;;5.60;97074.00;;;;8359839;28;20238;-74
2022/03/17 06:12:44;;;;;;;65.90;31.43;;;;;5.60;97077.00;;;;8371496;28;20230;-74
2022/03/17 06:16:47;;;;;;;76.07;33.10;;;;;5.60;97080.00;;;;8382846;28;20299;-75
2022/03/17 06:20:50;;;;;;;68.77;32.03;;;;;5.60;97084.00;;;;8373346;28;20222;-73
2022/03/17 06:24:53;;;;;;;67.73;31.33;;;;;5.70;97090.00;;;;8378181;28;20239;-74
2022/03/17 06:28:58;;;;;;;68.23;32.73;;;;;5.70;97094.00;;;;8379917;28;20228;-73
2022/03/17 06:33:01;;;;;;;66.77;30.67;;;;;5.80;97095.00;;;;8368191;28;20219;-73
2022/03/17 06:37:04;;;;;;;68.33;32.13;;;;;5.80;97098.00;;;;8374646;28;20230;-74
2022/03/17 06:41:07;;;;;;;68.37;31.33;;;;;5.90;97101.00;;;;8369955;28;20231;-74
2022/03/17 06:45:12;;;;;;;75.33;34.53;;;;;5.90;97093.00;;;;8367847;28;20277;-75
2022/03/17 06:49:15;;;;;;;66.30;31.70;;;;;5.90;97094.00;;;;8365816;28;20219;-75
2022/03/17 06:53:18;;;;;;;63.90;29.67;;;;;6.00;97104.00;;;;8363117;28;20242;-76
2022/03/17 06:57:22;;;;;;;69.13;33.40;;;;;6.20;97114.00;;;;8358693;28;20234;-76
2022/03/17 07:01:27;;;;;;;66.40;31.37;;;;;6.30;97107.00;;;;8368712;28;20235;-72
2022/03/17 07:05:30;;;;;;;72.03;30.80;;;;;6.40;97113.00;;;;8381748;28;20310;-75
2022/03/17 07:09:33;;;;;;;70.57;32.50;;;;;6.50;97113.00;;;;8359978;28;20223;-76
2022/03/17 07:13:36;;;;;;;64.17;31.43;;;;;6.60;97123.00;;;;8371611;28;20297;-76
2022/03/17 07:17:41;;;;;;;64.00;31.30;;;;;6.70;97120.00;;;;8366198;28;20288;-75
2022/03/17 07:21:45;;;;;;;67.10;31.07;;;;;6.80;97123.00;;;;8368788;28;20238;-74
2022/03/17 07:25:48;;;;;;;68.97;33.10;;;;;6.90;97128.00;;;;8381206;28;20363;-75
2022/03/17 07:29:52;;;;;;;66.47;31.87;;;;;7.00;97126.00;;;;8366467;28;20291;-74
2022/03/17 07:33:56;;;;;;;69.47;30.70;;;;;7.10;97119.00;;;;8364996;28;20224;-79
2022/03/17 07:38:02;;;;;;;69.57;32.10;;;;;7.20;97129.00;;;;8372055;28;20224;-76
2022/03/17 07:42:06;;;;;;;62.77;30.53;;;;;7.30;97129.00;;;;8362634;28;20605;-75
2022/03/17 07:46:10;;;;;;;71.43;32.77;;;;;7.40;97140.00;;;;8362820;28;20266;-75
2022/03/17 07:50:15;;;;;;;63.97;31.37;;;;;7.40;97137.00;;;;8355518;28;20999;-78
2022/03/17 07:54:18;;;;;;;70.27;32.03;;;;;7.50;97138.00;;;;8362443;28;20254;-79
2022/03/17 07:58:22;;;;;;;66.97;33.47;;;;;7.50;97145.00;;;;8360037;28;20223;-76
2022/03/17 08:02:25;;;;;;;67.23;33.23;;;;;7.70;97150.00;;;;8371055;28;20288;-76
2022/03/17 08:06:29;;;;;;;65.77;32.13;;;;;7.80;97158.00;;;;8390719;28;20228;-75
2022/03/17 08:10:32;;;;;;;66.27;33.37;;;;;7.90;97166.00;;;;8364801;28;20236;-75
2022/03/17 08:14:35;;;;;;;61.30;30.03;;;;;7.90;97150.00;;;;8378482;28;20230;-75
2022/03/17 08:18:38;;;;;;;65.23;31.43;;;;;8.00;97157.00;;;;8375134;28;20220;-76
2022/03/17 08:22:43;;;;;;;62.50;30.87;;;;;8.10;97153.00;;;;8388996;28;20227;-76
2022/03/17 08:26:46;;;;;;;64.43;31.63;;;;;8.20;97146.00;;;;8372191;28;20227;-75
2022/03/17 08:30:51;;;;;;;59.83;29.43;;;;;8.30;97152.00;;;;8380401;28;20228;-75
2022/03/17 08:34:54;;;;;;;70.17;33.77;;;;;8.30;97151.00;;;;8352507;28;20683;-77
2022/03/17 08:38:58;;;;;;;62.93;32.27;;;;;8.50;97158.00;;;;8381920;28;20265;-76
2022/03/17 08:43:01;;;;;;;62.20;30.83;;;;;8.60;97158.00;;;;8364470;28;20273;-76
2022/03/17 08:51:25;;;;;;;65.37;32.53;;;;;8.80;97163.00;;;;8364413;28;20313;-76
2022/03/17 08:55:30;;;;;;;64.37;31.17;;;;;9.00;97172.00;;;;8358897;28;20240;-76
2022/03/17 08:59:35;;;;;;;60.43;30.87;;;;;9.10;97175.00;;;;8368853;28;20265;-75
2022/03/17 09:03:38;;;;;;;62.07;30.93;;;;;9.20;97172.00;;;;8384596;28;20811;-75
2022/03/17 09:07:41;;;;;;;64.87;31.27;;;;;9.30;97175.00;;;;8372512;28;20290;-76
2022/03/17 09:11:47;;;;;;;62.97;31.33;;;;;9.50;97167.00;;;;8356845;28;20263;-77
2022/03/17 09:15:50;;;;;;;59.17;30.35;;;;;9.60;97178.00;;;;8365669;28;20239;-77
2022/03/17 09:19:53;;;;;;;64.38;31.70;;;;;9.70;97183.00;;;;8362649;28;20234;-83
2022/03/17 09:23:58;;;;;;;59.70;30.55;;;;;9.90;97179.00;;;;8372441;28;20274;-77
2022/03/17 09:28:03;;;;;;;59.20;29.10;;;;;10.00;97184.00;;;;8375590;28;20277;-78
2022/03/17 09:32:09;;;;;;;61.37;30.90;;;;;10.00;97180.00;;;;8377919;28;20274;-79
2022/03/17 09:36:12;;;;;;;60.45;30.98;;;;;10.10;97177.00;;;;8377340;28;20239;-79
2022/03/17 09:40:15;;;;;;;54.67;30.30;;;;;10.20;97179.00;;;;8382055;28;20231;-76
2022/03/17 09:44:19;;;;;;;53.17;28.67;;;;;10.30;97187.00;;;;8375794;28;20231;-80
2022/03/17 09:48:25;;;;;;;63.13;32.05;;;;;10.40;97187.00;;;;8369551;28;20234;-79
2022/03/17 09:52:30;;;;;;;58.70;29.20;;;;;10.50;97185.00;;;;8380153;28;20297;-72
2022/03/17 09:56:34;;;;;;;58.20;30.03;;;;;10.60;97197.00;;;;8376914;28;20224;-73
2022/03/17 10:00:52;;;;;;;53.22;28.60;;;;;10.80;97187.00;;;;8382046;28;20288;-69
2022/03/17 10:04:56;;;;;;;55.97;29.30;;;;;11.00;97192.00;;;;8370928;28;20233;-74
2022/03/17 10:08:59;;;;;;;55.63;29.55;;;;;11.30;97200.00;;;;8376323;28;20239;-76
2022/03/17 10:13:05;;;;;;;53.53;27.52;;;;;11.50;97197.00;;;;8387432;28;20212;-75
2022/03/17 10:17:29;;;;;;;50.97;28.70;;;;;11.90;97211.00;;;;8372733;28;20266;-75
2022/03/17 10:21:38;;;;;;;50.72;27.50;;;;;12.10;97214.00;;;;8364644;28;20879;-74
2022/03/17 10:25:41;;;;;;;51.30;26.77;;;;;12.50;97214.00;;;;8368295;28;20239;-76
2022/03/17 10:30:02;;;;;;;46.97;26.08;;;;;12.50;97214.00;;;;8385283;28;20695;-75
2022/03/17 10:34:06;;;;;;;47.42;26.02;;;;;12.60;97201.00;;;;8380206;28;20228;-76
2022/03/17 10:38:10;;;;;;;51.22;26.23;;;;;12.60;97210.00;;;;8388138;28;20293;-75
2022/03/17 10:42:16;;;;;;;50.10;26.23;;;;;12.80;97203.00;;;;8397842;28;20231;-73
2022/03/17 10:46:20;;;;;;;46.38;26.02;;;;;12.90;97218.00;;;;8375568;28;20801;-74
2022/03/17 10:50:28;;;;;;;51.88;25.88;;;;;12.80;97216.00;;;;8380598;28;20278;-74
2022/03/17 10:54:31;;;;;;;50.67;26.10;;;;;12.70;97222.00;;;;8388948;28;20238;-76
2022/03/17 10:58:41;;;;;;;45.10;25.60;;;;;12.50;97228.00;;;;8369470;28;20328;-72
2022/03/17 11:03:06;;;;;;;42.85;24.45;;;;;12.50;97219.00;;;;8369035;28;20620;-78
2022/03/17 11:07:13;;;;;;;47.63;24.17;;;;;12.40;97224.00;;;;8368694;28;20720;-75
2022/03/17 11:11:18;;;;;;;50.05;24.52;;;;;12.50;97230.00;;;;8374365;28;20226;-75
2022/03/17 11:15:28;;;;;;;45.65;26.15;;;;;12.70;97230.00;;;;8378093;28;20292;-77
2022/03/17 11:19:33;;;;;;;48.00;25.90;;;;;12.70;97241.00;;;;8374690;28;20289;-76
2022/03/17 11:23:55;;;;;;;45.40;24.88;;;;;12.80;97237.00;;;;8375892;28;20235;-77
2022/03/17 11:28:05;;;;;;;47.15;24.83;;;;;12.90;97232.00;;;;8373468;28;20279;-73
2022/03/17 11:32:10;;;;;;;47.50;25.90;;;;;12.90;97235.00;;;;8378435;28;20228;-75
2022/03/17 11:36:21;;;;;;;47.47;27.20;;;;;13.00;97246.00;;;;8377177;28;20249;-76
2022/03/17 11:40:26;;;;;;;49.35;26.42;;;;;12.90;97230.00;;;;8368918;28;20334;-77
2022/03/17 11:44:34;;;;;;;50.15;26.70;;;;;12.90;97230.00;;;;8370600;28;20270;-74
2022/03/17 11:48:37;;;;;;;56.63;27.52;;;;;12.80;97224.00;;;;8364437;28;20389;-77
2022/03/17 11:52:43;;;;;;;45.72;26.60;;;;;12.70;97223.00;;;;8363892;28;20230;-79
2022/03/17 11:56:53;;;;;;;44.33;26.00;;;;;12.70;97226.00;;;;8366731;28;20227;-79
2022/03/17 12:01:11;;;;;;;50.05;27.98;;;;;12.60;97227.00;;;;8358686;28;20282;-80
2022/03/17 12:05:16;;;;;;;47.63;25.85;;;;;12.60;97220.00;;;;8365139;28;20231;-80
2022/03/17 12:09:31;;;;;;;48.22;26.77;;;;;12.70;97229.00;;;;8370681;28;20400;-77
2022/03/17 12:13:36;;;;;;;49.47;27.15;;;;;12.60;97227.00;;;;8355266;28;20227;-80
2022/03/17 12:17:39;;;;;;;57.35;29.02;;;;;12.80;97221.00;;;;8363744;28;20691;-83
2022/03/17 12:22:05;;;;;;;55.25;27.92;;;;;12.80;97218.00;;;;8372229;28;20314;-77
2022/03/17 12:26:08;;;;;;;50.42;27.60;;;;;12.80;97227.00;;;;8372381;28;20237;-77
2022/03/17 12:30:15;;;;;;;51.33;28.65;;;;;12.80;97228.00;;;;8375013;28;20228;-81
2022/03/17 12:34:18;;;;;;;56.13;28.23;;;;;12.90;97235.00;;;;8377320;28;20238;-80
2022/03/17 12:38:21;;;;;;;47.17;26.92;;;;;12.90;97241.00;;;;8364940;28;20692;-78
2022/03/17 12:42:26;;;;;;;54.95;27.70;;;;;12.90;97239.00;;;;8358815;28;20231;-75
2022/03/17 12:46:30;;;;;;;53.65;28.83;;;;;12.80;97238.00;;;;8352803;28;20236;-75
2022/03/17 12:50:33;;;;;;;49.03;27.85;;;;;12.80;97235.00;;;;8362330;28;20254;-73
2022/03/17 12:54:36;;;;;;;61.92;29.58;;;;;12.90;97224.00;;;;8377129;28;20261;-74
2022/03/17 12:58:40;;;;;;;48.45;26.70;;;;;12.80;97225.00;;;;8351019;28;20305;-73
2022/03/17 13:02:48;;;;;;;50.67;28.77;;;;;12.70;97220.00;;;;8365751;28;20281;-74
2022/03/17 13:06:55;;;;;;;52.33;27.55;;;;;12.70;97222.00;;;;8371204;28;20245;-74
2022/03/17 13:15:58;;;;;;;50.15;26.50;;;;;12.70;97219.00;;;;8365769;28;20219;-75
2022/03/17 13:20:06;;;;;;;50.28;27.27;;;;;12.80;97217.00;;;;8365797;28;20226;-74
2022/03/17 13:24:36;;;;;;;47.78;26.90;;;;;13.00;97219.00;;;;8365817;28;20263;-75
2022/03/17 13:29:14;;;;;;;50.58;27.00;;;;;13.20;97217.00;;;;8365559;28;20221;-74
2022/03/17 13:33:52;;;;;;;52.45;27.13;;;;;13.40;97225.00;;;;8363915;28;20270;-75
2022/03/17 13:38:32;;;;;;;48.83;25.83;;;;;13.20;97220.00;;;;8364222;28;20251;-71
2022/03/17 13:43:04;;;;;;;51.88;27.38;;;;;13.20;97224.00;;;;8364515;28;20226;-69
2022/03/17 13:47:37;;;;;;;50.55;24.58;;;;;13.20;97225.00;;;;8365162;28;20216;-71
2022/03/17 13:51:40;;;;;;;51.65;28.02;;;;;13.20;97225.00;;;;8365451;28;20218;-71
2022/03/17 13:55:47;;;;;;;48.88;26.02;;;;;13.10;97228.00;;;;8365141;28;20231;-71
2022/03/17 14:00:21;;;;;;;49.55;25.33;;;;;13.00;97232.00;;;;8364368;28;20227;-70
2022/03/17 14:04:56;;;;;;;54.60;28.13;;;;;13.00;97228.00;;;;8364278;28;20226;-70
2022/03/17 14:14:34;;;;;;;53.60;26.73;;;;;12.80;97240.00;;;;8363443;28;20643;-70
2022/03/17 14:19:07;;;;;;;49.15;26.08;;;;;12.80;97242.00;;;;8361673;28;20224;-70
2022/03/17 14:28:17;;;;;;;54.92;27.92;;;;;12.60;97244.00;;;;8364118;28;20238;-70
2022/03/17 14:32:54;;;;;;;46.45;26.80;;;;;12.60;97249.00;;;;8363246;28;20221;-70
2022/03/17 14:37:32;;;;;;;51.72;27.92;;;;;12.60;97262.00;;;;8363852;28;20237;-70
2022/03/17 14:42:12;;;;;;;55.45;26.90;;;;;12.50;97261.00;;;;8363807;28;20223;-70
2022/03/17 14:46:16;;;;;;;53.17;26.23;;;;;12.50;97275.00;;;;8363187;28;20617;-69
2022/03/17 14:50:52;;;;;;;55.45;26.17;;;;;12.40;97277.00;;;;8362353;28;20238;-70
2022/03/17 14:55:31;;;;;;;51.78;26.98;;;;;12.30;97289.00;;;;8362795;28;20780;-70
2022/03/17 14:59:34;;;;;;;57.47;25.92;;;;;12.30;97288.00;;;;8363051;28;20221;-70
2022/03/17 15:04:10;;;;;;;50.95;25.95;;;;;12.30;97285.00;;;;8360335;28;20233;-71
2022/03/17 15:08:47;;;;;;;44.03;24.02;;;;;12.30;97284.00;;;;8362612;28;20231;-70
2022/03/17 15:12:51;;;;;;;49.83;25.38;;;;;12.30;97292.00;;;;8362615;28;20222;-68
2022/03/17 15:16:55;;;;;;;48.45;24.05;;;;;12.30;97293.00;;;;8361977;28;20307;-69
2022/03/17 15:20:59;;;;;;;49.40;24.50;;;;;12.30;97295.00;;;;8362849;28;20251;-71
2022/03/17 15:25:02;;;;;;;45.15;23.67;;;;;12.30;97296.00;;;;8362756;28;20217;-69
2022/03/17 15:33:40;;;;;;;44.13;24.52;;;;;12.10;97302.00;;;;8362380;28;20277;-69
2022/03/17 15:38:17;;;;;;;47.80;25.33;;;;;12.10;97300.00;;;;8355010;28;20224;-69
2022/03/17 15:42:51;;;;;;;49.50;26.40;;;;;12.10;97303.00;;;;8359862;28;20635;-69
2022/03/17 15:46:57;;;;;;;51.10;25.70;;;;;12.00;97311.00;;;;8361339;28;20217;-68
2022/03/17 15:51:31;;;;;;;50.08;26.38;;;;;12.00;97312.00;;;;8360724;28;20682;-68
2022/03/17 15:55:34;;;;;;;51.70;25.65;;;;;12.00;97314.00;;;;8360971;28;20227;-68
2022/03/17 16:00:11;;;;;;;48.38;25.90;;;;;11.90;97325.00;;;;8354458;28;20239;-69
2022/03/17 16:04:50;;;;;;;48.53;26.02;;;;;11.90;97333.00;;;;8361231;28;20290;-69
2022/03/17 16:14:28;;;;;;;47.08;23.98;;;;;11.80;97339.00;;;;8361135;28;20736;-67
2022/03/17 16:14:29;;;;;;;51.95;24.67;;;;;11.70;97340.00;;;;8361283;28;20518;-67
2022/03/17 16:18:32;;;;;;;52.50;26.27;;;;;11.60;97345.00;;;;8358779;28;20224;-74
2022/03/17 16:22:38;;;;;;;45.92;25.55;;;;;11.60;97351.00;;;;8361658;28;20226;-74
2022/03/17 16:27:12;;;;;;;71.07;28.65;;;;;11.50;97348.00;;;;8359116;28;20222;-75
2022/03/17 16:31:48;;;;;;;53.10;27.30;;;;;11.40;97344.00;;;;8360241;28;20534;-77
2022/03/17 16:36:25;;;;;;;49.10;25.65;;;;;11.30;97341.00;;;;8358114;28;20661;-74
2022/03/17 16:40:30;;;;;;;50.17;25.23;;;;;11.30;97349.00;;;;8362725;28;20218;-77
2022/03/17 16:44:33;;;;;;;50.25;26.17;;;;;11.20;97345.00;;;;8366899;28;20600;-77
2022/03/17 16:48:36;;;;;;;48.35;24.48;;;;;11.10;97346.00;;;;8367130;28;20226;-75
2022/03/17 16:53:12;;;;;;;48.83;25.02;;;;;11.00;97354.00;;;;8367454;28;20225;-76
2022/03/17 16:57:53;;;;;;;49.47;24.58;;;;;10.90;97353.00;;;;8366833;28;20223;-75
2022/03/17 17:02:27;;;;;;;45.92;23.90;;;;;10.90;97364.00;;;;8366084;28;20220;-76
2022/03/17 17:06:29;;;;;;;46.53;25.48;;;;;10.80;97364.00;;;;8366697;28;20229;-76
2022/03/17 17:10:33;;;;;;;49.80;25.93;;;;;10.70;97370.00;;;;8364886;28;20220;-78
2022/03/17 17:15:09;;;;;;;46.88;25.58;;;;;10.60;97381.00;;;;8366111;28;20674;-77
2022/03/17 17:19:43;;;;;;;52.30;25.40;;;;;10.50;97374.00;;;;8365740;28;20543;-77
2022/03/17 17:33:04;;;;;;;54.65;26.90;;;;;10.40;97387.00;;;;8365642;28;20269;-70
2022/03/17 17:37:38;;;;;;;56.05;26.23;;;;;10.30;97402.00;;;;8366526;28;20229;-70
2022/03/17 17:42:15;;;;;;;54.00;26.10;;;;;10.30;97398.00;;;;8365372;28;20252;-78
2022/03/17 17:46:49;;;;;;;59.47;27.75;;;;;10.20;97411.00;;;;8364913;28;20225;-69
2022/03/17 17:51:27;;;;;;;51.63;26.15;;;;;10.20;97412.00;;;;8363830;28;20660;-69
2022/03/17 17:56:05;;;;;;;58.28;27.45;;;;;10.20;97420.00;;;;8365571;28;20216;-70
2022/03/17 18:00:41;;;;;;;56.42;25.58;;;;;10.20;97427.00;;;;8364817;28;20220;-69
2022/03/17 18:05:15;;;;;;;91.60;34.35;;;;;10.20;97430.00;;;;8364196;28;20221;-70
2022/03/17 18:09:20;;;;;;;59.03;30.60;;;;;10.20;97431.00;;;;8365585;28;20221;-70
2022/03/17 18:13:53;;;;;;;55.80;28.45;;;;;10.20;97430.00;;;;8364228;28;20222;-70
2022/03/17 18:17:58;;;;;;;58.53;28.70;;;;;10.20;97432.00;;;;8364196;28;20279;-69
2022/03/17 18:22:01;;;;;;;55.97;29.73;;;;;10.30;97428.00;;;;8365043;28;20224;-69
2022/03/17 18:26:05;;;;;;;63.17;27.83;;;;;10.30;97431.00;;;;8364268;28;20266;-69
2022/03/17 18:30:09;;;;;;;60.97;28.55;;;;;10.30;97440.00;;;;8364055;28;20217;-70
2022/03/17 18:34:43;;;;;;;66.30;30.55;;;;;10.20;97442.00;;;;8365121;28;20680;-69
2022/03/17 18:39:17;;;;;;;58.20;29.03;;;;;10.20;97447.00;;;;8363007;28;20286;-69
2022/03/17 18:43:55;;;;;;;58.88;29.60;;;;;10.10;97454.00;;;;8364045;28;20237;-69
2022/03/17 18:48:32;;;;;;;64.27;29.53;;;;;10.10;97455.00;;;;8363899;28;20224;-69
2022/03/17 18:53:03;;;;;;;55.75;26.20;;;;;10.10;97467.00;;;;8363788;28;20225;-72
2022/03/17 18:57:41;;;;;;;61.30;32.67;;;;;10.10;97465.00;;;;8363286;28;20231;-71
2022/03/17 19:02:08;;;;;;;62.50;31.03;;;;;10.10;97482.00;;;;8362014;28;20217;-71
2022/03/17 19:06:42;;;;;;;61.97;30.67;;;;;10.10;97485.00;;;;8359053;28;20657;-71
2022/03/17 19:11:19;;;;;;;63.00;31.50;;;;;10.10;97481.00;;;;8362183;28;20278;-70
2022/03/17 19:15:55;;;;;;;65.13;31.48;;;;;10.00;97487.00;;;;8362121;28;20255;-69
2022/03/17 19:20:34;;;;;;;58.27;29.77;;;;;10.00;97490.00;;;;8357029;28;20227;-69
2022/03/17 19:25:08;;;;;;;66.27;31.30;;;;;10.00;97492.00;;;;8363030;28;20225;-71
2022/03/17 19:29:45;;;;;;;67.63;31.27;;;;;10.00;97500.00;;;;8360974;28;21112;-72
2022/03/17 19:34:19;;;;;;;60.77;30.17;;;;;10.00;97515.00;;;;8361612;28;20708;-72
2022/03/17 19:38:55;;;;;;;63.17;30.75;;;;;10.00;97515.00;;;;8361597;28;20220;-74
2022/03/17 19:43:35;;;;;;;60.03;30.27;;;;;10.00;97521.00;;;;8360632;28;20642;-71
2022/03/17 19:48:09;;;;;;;60.70;31.27;;;;;10.00;97520.00;;;;8360812;28;20228;-72
2022/03/17 19:52:46;;;;;;;62.30;29.83;;;;;9.90;97523.00;;;;8361393;28;20660;-72
2022/03/17 19:57:22;;;;;;;58.70;29.57;;;;;9.90;97530.00;;;;8361682;28;20622;-71
2022/03/17 20:02:00;;;;;;;57.38;28.85;;;;;9.90;97531.00;;;;8360981;28;20293;-71
2022/03/17 20:06:35;;;;;;;63.53;28.98;;;;;9.90;97538.00;;;;8360713;28;20250;-71
2022/03/17 20:15:46;;;;;;;64.33;30.47;;;;;9.80;97541.00;;;;8360771;28;20561;-72
2022/03/17 20:20:25;;;;;;;61.90;30.40;;;;;9.80;97547.00;;;;8360055;28;20220;-72
2022/03/17 20:25:01;;;;;;;52.92;27.50;;;;;9.80;97553.00;;;;8358417;28;20225;-71
2022/03/17 20:29:04;;;;;;;56.97;30.25;;;;;9.80;97556.00;;;;8360908;28;20220;-71
2022/03/17 20:33:39;;;;;;;58.50;30.83;;;;;9.80;97568.00;;;;8360685;28;20228;-71
2022/03/17 20:38:16;;;;;;;61.97;29.60;;;;;9.80;97568.00;;;;8360441;28;20224;-71
2022/03/17 20:42:59;;;;;;;58.75;29.20;;;;;9.90;97576.00;;;;8349505;28;20229;-72
2022/03/17 20:47:04;;;;;;;55.03;26.10;;;;;9.90;97583.00;;;;8355597;28;20217;-72
2022/03/17 20:51:07;;;;;;;63.58;29.73;;;;;9.90;97586.00;;;;8360078;28;20224;-72
2022/03/17 20:55:43;;;;;;;61.73;29.10;;;;;9.80;97580.00;;;;8359494;28;20578;-72
2022/03/17 21:00:22;;;;;;;57.90;28.67;;;;;9.80;97585.00;;;;8360189;28;20717;-71
2022/03/17 21:04:55;;;;;;;63.20;30.07;;;;;9.80;97589.00;;;;8359766;28;20228;-72
2022/03/17 21:09:32;;;;;;;58.17;29.98;;;;;9.80;97582.00;;;;8360092;28;20220;-71
2022/03/17 21:18:53;;;;;;;62.43;30.73;;;;;9.70;97596.00;;;;8357403;28;20224;-73
2022/03/17 21:23:26;;;;;;;60.30;28.90;;;;;9.70;97597.00;;;;8359229;28;20216;-71
2022/03/17 21:28:03;;;;;;;58.00;29.05;;;;;9.70;97607.00;;;;8361981;28;20273;-71
2022/03/17 21:32:08;;;;;;;62.78;30.02;;;;;9.70;97610.00;;;;8365600;28;20221;-71